Time;durP1;ratioP1;P1;durP2;ratioP2;P2;SDS_P1;SDS_P2;PMS_P1;PMS_P2;Temp;Humidity;BMP_temperature;BMP_pressure;BME280_temperature;BME280_humidity;BME280_pressure;Samples;Min_cycle;Max_cycle;Signal;HPM_P1;HPM_P2
2021/09/28 00:01:06;;;;;;;18.65;7.97;;;;;;;22.08;55.45;100937.66;4996657;28;20045;-76
2021/09/28 00:03:31;;;;;;;16.80;7.32;;;;;;;22.08;55.28;100943.00;5030749;28;20156;-75
2021/09/28 00:05:57;;;;;;;16.52;7.35;;;;;;;22.07;55.31;100936.81;5031104;28;20036;-77
2021/09/28 00:08:22;;;;;;;15.27;7.40;;;;;;;22.08;55.29;100937.66;5013108;28;20088;-74
2021/09/28 00:10:47;;;;;;;15.52;6.63;;;;;;;22.07;54.92;100930.66;5031378;28;20037;-76
2021/09/28 00:13:13;;;;;;;16.42;7.35;;;;;;;22.07;55.01;100931.50;5012426;28;20033;-76
2021/09/28 00:15:38;;;;;;;16.55;7.32;;;;;;;22.06;55.17;100929.84;5030044;28;20029;-77
2021/09/28 00:18:04;;;;;;;18.30;6.95;;;;;;;22.06;55.15;100935.19;5013060;28;20041;-77
2021/09/28 00:20:32;;;;;;;16.35;6.68;;;;;;;22.06;54.76;100929.84;5012571;28;20103;-76
2021/09/28 00:22:57;;;;;;;14.70;5.95;;;;;;;22.06;55.03;100929.84;5012617;28;20463;-76
2021/09/28 00:25:23;;;;;;;14.13;6.53;;;;;;;22.05;54.72;100936.22;5030936;28;20056;-77
2021/09/28 00:27:48;;;;;;;17.60;6.75;;;;;;;;;;5012911;28;20171;-77
2021/09/28 00:30:14;;;;;;;15.38;6.70;;;;;;;22.04;54.67;100945.25;5012351;28;20038;-77
2021/09/28 00:32:41;;;;;;;15.02;5.72;;;;;;;22.04;54.86;100953.25;5030166;28;20041;-76
2021/09/28 00:35:06;;;;;;;14.13;6.00;;;;;;;;;;4996220;28;20396;-76
2021/09/28 00:37:32;;;;;;;14.68;5.60;;;;;;;22.03;54.63;100943.59;5029884;28;20107;-76
2021/09/28 00:39:57;;;;;;;13.45;5.53;;;;;;;22.04;54.56;100953.25;5012808;28;20037;-76
2021/09/28 00:42:23;;;;;;;14.40;5.95;;;;;;;22.02;54.74;100952.66;5030425;28;20041;-74
2021/09/28 00:44:48;;;;;;;11.73;5.18;;;;;;;22.02;54.59;100949.16;5030062;28;20087;-77
2021/09/28 00:47:15;;;;;;;12.30;5.30;;;;;;;22.02;54.49;100954.50;5030148;28;20048;-77
2021/09/28 00:49:47;;;;;;;12.45;5.43;;;;;;;22.00;54.56;100961.91;5011942;28;20045;-76
2021/09/28 00:52:17;;;;;;;13.55;5.40;;;;;;;22.01;54.44;100964.38;5030769;28;20053;-76
2021/09/28 00:54:44;;;;;;;10.30;4.53;;;;;;;22.00;54.34;100952.03;5029660;28;20417;-74
2021/09/28 00:57:11;;;;;;;13.90;5.03;;;;;;;22.01;54.19;100959.03;5012422;28;20030;-76
2021/09/28 00:59:38;;;;;;;10.88;4.88;;;;;;;22.00;54.49;100949.38;5029720;28;20060;-77
2021/09/28 01:02:12;;;;;;;12.52;5.53;;;;;;;21.99;54.43;100954.91;5013437;28;20034;-76
2021/09/28 01:04:38;;;;;;;11.30;4.80;;;;;;;22.00;54.18;100951.22;5008414;28;20121;-74
2021/09/28 01:07:05;;;;;;;11.45;5.13;;;;;;;22.00;54.48;100956.56;5009131;28;20168;-77
2021/09/28 01:09:32;;;;;;;12.10;4.85;;;;;;;22.00;54.21;100952.03;5028520;28;20045;-70
2021/09/28 01:11:58;;;;;;;9.88;4.05;;;;;;;22.01;54.23;100956.34;5029742;28;20041;-77
2021/09/28 01:14:24;;;;;;;11.75;5.25;;;;;;;22.00;54.40;100956.56;5029791;28;20132;-76
2021/09/28 01:16:49;;;;;;;12.05;4.90;;;;;;;21.99;54.30;100960.25;5029175;28;20113;-75
2021/09/28 01:19:15;;;;;;;11.10;4.38;;;;;;;21.99;54.77;100953.06;5029550;28;20041;-77
2021/09/28 01:21:41;;;;;;;10.05;4.25;;;;;;;21.99;54.30;100955.75;5028890;28;20060;-76
2021/09/28 01:24:07;;;;;;;10.70;4.47;;;;;;;21.99;54.29;100953.06;5011788;28;20393;-78
2021/09/28 01:26:33;;;;;;;9.60;4.07;;;;;;;21.99;54.28;100952.25;5029792;28;20073;-70
2021/09/28 01:29:01;;;;;;;11.07;4.57;;;;;;;21.99;54.35;100953.06;5029586;28;20468;-76
2021/09/28 01:31:26;;;;;;;11.60;4.45;;;;;;;21.97;54.42;100947.13;5011470;28;20037;-76
2021/09/28 01:33:52;;;;;;;10.77;4.07;;;;;;;21.98;54.44;100943.41;5028853;28;20088;-75
2021/09/28 01:36:19;;;;;;;10.35;4.10;;;;;;;21.98;54.25;100940.75;5029597;28;20037;-77
2021/09/28 01:38:44;;;;;;;9.88;4.43;;;;;;;21.98;54.33;100942.59;5029202;28;20115;-77
2021/09/28 01:41:11;;;;;;;8.70;4.07;;;;;;;21.97;54.34;100944.44;5029483;28;20654;-75
2021/09/28 01:43:37;;;;;;;8.95;3.97;;;;;;;21.96;54.56;100934.78;5028771;28;20056;-76
2021/09/28 01:46:04;;;;;;;8.75;3.80;;;;;;;21.97;54.26;100938.28;5029272;28;20038;-75
2021/09/28 01:48:46;;;;;;;8.57;4.07;;;;;;;21.94;54.12;100941.38;5028731;28;20038;-75
2021/09/28 01:51:12;;;;;;;8.85;3.40;;;;;;;21.96;54.05;100929.44;5010842;28;20595;-77
2021/09/28 01:53:38;;;;;;;8.05;3.22;;;;;;;21.96;54.23;100934.78;5010678;28;20056;-74
2021/09/28 01:56:04;;;;;;;8.70;3.38;;;;;;;21.95;54.44;100938.50;4994367;28;20479;-76
2021/09/28 01:58:32;;;;;;;9.23;3.33;;;;;;;21.96;54.30;100931.31;5029137;28;20125;-74
2021/09/28 02:00:57;;;;;;;9.48;3.63;;;;;;;21.96;54.03;100929.44;5021777;28;20030;-76
2021/09/28 02:03:23;;;;;;;7.97;3.50;;;;;;;21.95;54.12;100927.81;5009762;28;20440;-75
2021/09/28 02:05:49;;;;;;;7.18;3.15;;;;;;;21.96;54.07;100923.28;5007660;28;20091;-77
2021/09/28 02:08:14;;;;;;;6.72;2.85;;;;;;;21.95;54.17;100925.16;5011374;28;20409;-77
2021/09/28 02:10:40;;;;;;;6.88;3.15;;;;;;;21.95;54.36;100922.47;5028499;28;20041;-74
2021/09/28 02:13:06;;;;;;;7.80;3.10;;;;;;;21.95;54.20;100925.16;5029492;28;20057;-77
2021/09/28 02:15:32;;;;;;;9.00;3.20;;;;;;;21.95;54.01;100927.00;5010459;28;20515;-78
2021/09/28 02:17:59;;;;;;;7.32;3.15;;;;;;;21.94;54.36;100920.84;5028707;28;20120;-76
2021/09/28 02:20:25;;;;;;;6.75;3.00;;;;;;;21.94;54.31;100923.50;5028498;28;20884;-76
2021/09/28 02:22:50;;;;;;;7.85;2.95;;;;;;;21.95;54.24;100911.78;5029760;28;20053;-77
2021/09/28 02:25:19;;;;;;;7.78;2.90;;;;;;;21.94;54.01;100912.81;5011371;28;20045;-77
2021/09/28 02:27:45;;;;;;;7.15;3.20;;;;;;;21.94;54.09;100910.16;5028905;28;20061;-76
2021/09/28 02:30:11;;;;;;;6.55;2.65;;;;;;;21.94;54.39;100915.50;5010719;28;20161;-75
2021/09/28 02:32:37;;;;;;;6.47;2.80;;;;;;;21.93;53.93;100907.66;5028696;28;20037;-77
2021/09/28 02:35:03;;;;;;;5.55;2.72;;;;;;;21.94;54.14;100917.34;5029017;28;20056;-74
2021/09/28 02:37:28;;;;;;;6.30;2.90;;;;;;;21.92;54.35;100906.84;5033017;28;20032;-76
2021/09/28 02:39:54;;;;;;;7.47;3.22;;;;;;;21.93;53.93;100910.34;5032641;28;20820;-76
2021/09/28 02:42:19;;;;;;;7.32;2.95;;;;;;;21.93;54.27;100907.66;5015069;28;20428;-75
2021/09/28 02:44:46;;;;;;;5.90;3.08;;;;;;;21.92;53.90;100906.84;5032594;28;20029;-76
2021/09/28 02:47:11;;;;;;;7.90;2.40;;;;;;;21.92;54.07;100906.84;5032296;28;20131;-76
2021/09/28 02:49:37;;;;;;;6.82;2.97;;;;;;;21.92;53.90;100903.34;5014035;28;20421;-76
2021/09/28 02:52:03;;;;;;;5.35;2.80;;;;;;;21.92;54.27;100898.00;5032383;28;20484;-74
2021/09/28 02:54:28;;;;;;;7.05;2.78;;;;;;;21.91;54.20;100899.84;5014749;28;20436;-77
2021/09/28 02:56:54;;;;;;;6.05;2.55;;;;;;;21.92;53.97;100906.84;5031923;28;20469;-75
2021/09/28 02:59:19;;;;;;;5.32;2.35;;;;;;;21.91;54.09;100899.03;5032502;28;20110;-76
2021/09/28 03:01:45;;;;;;;7.00;2.85;;;;;;;21.91;53.97;100899.03;5017655;28;20038;-76
2021/09/28 03:04:11;;;;;;;6.05;2.40;;;;;;;21.90;54.37;100892.06;5017417;28;20049;-74
2021/09/28 03:06:37;;;;;;;5.70;2.38;;;;;;;21.90;54.13;100890.22;5031869;28;20474;-75
2021/09/28 03:09:02;;;;;;;5.78;2.65;;;;;;;21.91;53.99;100893.69;5032867;28;20420;-76
2021/09/28 03:11:28;;;;;;;6.30;2.40;;;;;;;21.90;53.98;100887.53;5014327;28;20045;-75
2021/09/28 03:13:54;;;;;;;6.78;2.55;;;;;;;21.90;54.20;100882.19;5031945;28;20404;-77
2021/09/28 03:16:20;;;;;;;6.90;2.42;;;;;;;21.90;54.29;100878.72;5031841;28;20422;-77
2021/09/28 03:18:46;;;;;;;5.60;2.40;;;;;;;21.90;53.95;100881.38;5031315;28;20041;-77
2021/09/28 03:21:11;;;;;;;6.47;2.45;;;;;;;21.90;53.96;100879.53;5008416;28;20408;-76
2021/09/28 03:23:37;;;;;;;5.80;2.58;;;;;;;21.89;53.97;100883.22;5025444;28;20049;-77
2021/09/28 03:26:02;;;;;;;5.18;2.22;;;;;;;21.89;54.21;100877.88;5032537;28;20107;-73
2021/09/28 03:28:28;;;;;;;6.90;2.72;;;;;;;21.89;53.88;100871.72;5014448;28;20119;-76
2021/09/28 03:30:53;;;;;;;4.95;2.15;;;;;;;21.88;53.96;100873.56;5013319;28;20064;-77
2021/09/28 03:33:19;;;;;;;5.75;2.03;;;;;;;21.88;54.34;100873.56;5032127;28;20057;-77
2021/09/28 03:35:45;;;;;;;6.38;2.50;;;;;;;21.88;54.04;100868.22;5031532;28;20473;-75
2021/09/28 03:38:10;;;;;;;4.97;2.03;;;;;;;21.88;53.94;100867.41;5013831;28;20033;-77
2021/09/28 03:40:39;;;;;;;5.72;2.10;;;;;;;21.87;54.02;100866.59;5031414;28;20048;-77
2021/09/28 03:43:06;;;;;;;4.88;1.88;;;;;;;21.88;54.02;100867.41;5031727;28;20033;-76
2021/09/28 03:45:32;;;;;;;5.22;2.15;;;;;;;21.87;54.23;100863.09;5013336;28;20099;-77
2021/09/28 03:47:57;;;;;;;5.93;2.28;;;;;;;21.88;54.03;100867.41;5029958;28;20038;-74
2021/09/28 03:50:24;;;;;;;4.20;1.73;;;;;;;21.87;54.26;100855.91;5013235;28;20041;-76
2021/09/28 03:52:49;;;;;;;6.53;2.08;;;;;;;21.86;54.18;100856.94;5013894;28;20759;-74
2021/09/28 03:55:19;;;;;;;4.10;2.00;;;;;;;21.86;54.13;100859.63;5031244;28;20066;-76
2021/09/28 03:57:46;;;;;;;4.43;2.28;;;;;;;21.86;54.12;100856.94;5030607;28;20186;-76
2021/09/28 04:00:12;;;;;;;5.40;2.08;;;;;;;21.85;54.33;100852.63;5011971;28;20052;-76
2021/09/28 04:02:37;;;;;;;5.55;2.65;;;;;;;21.85;53.91;100849.97;5011464;28;20034;-70
2021/09/28 04:05:03;;;;;;;4.60;1.98;;;;;;;21.85;54.16;100852.63;5010896;28;20029;-76
2021/09/28 04:07:28;;;;;;;4.75;1.85;;;;;;;21.84;54.36;100853.69;5010128;28;20045;-77
2021/09/28 04:09:54;;;;;;;5.40;1.90;;;;;;;21.85;54.32;100835.78;4993520;28;20034;-76
2021/09/28 04:12:19;;;;;;;4.95;2.35;;;;;;;21.84;54.17;100843.00;5010350;28;20437;-77
2021/09/28 04:14:46;;;;;;;4.78;1.92;;;;;;;21.84;53.94;100848.34;5030681;28;20041;-75
2021/09/28 04:17:11;;;;;;;5.35;2.08;;;;;;;21.85;54.00;100844.63;5030508;28;20045;-76
2021/09/28 04:19:37;;;;;;;5.10;1.73;;;;;;;21.85;54.21;100831.28;5030891;28;20041;-77
2021/09/28 04:22:03;;;;;;;5.60;1.77;;;;;;;21.85;54.20;100833.13;5030274;28;20054;-75
2021/09/28 04:24:29;;;;;;;4.15;1.70;;;;;;;21.85;54.25;100844.63;5013156;28;20029;-75
2021/09/28 04:26:54;;;;;;;4.55;1.95;;;;;;;21.85;54.11;100836.63;5030368;28;20029;-76
2021/09/28 04:29:20;;;;;;;4.15;1.95;;;;;;;21.85;54.13;100841.13;5030759;28;20041;-76
2021/09/28 04:31:45;;;;;;;4.18;2.08;;;;;;;21.84;54.21;100834.97;5012829;28;20046;-75
2021/09/28 04:34:11;;;;;;;5.03;1.67;;;;;;;21.82;54.29;100831.72;5012794;28;20457;-73
2021/09/28 04:36:36;;;;;;;3.60;1.40;;;;;;;21.83;54.34;100834.16;5031111;28;20396;-74
2021/09/28 04:39:02;;;;;;;4.15;1.77;;;;;;;21.84;54.24;100845.66;5012530;28;20148;-75
2021/09/28 04:41:27;;;;;;;4.78;1.75;;;;;;;21.82;54.31;100835.19;5012780;28;20041;-73
2021/09/28 04:43:53;;;;;;;4.47;1.77;;;;;;;21.83;54.32;100850.19;5012417;28;20037;-75
2021/09/28 04:46:18;;;;;;;4.93;1.77;;;;;;;21.83;54.19;100844.03;5012050;28;20068;-75
2021/09/28 04:48:44;;;;;;;4.68;1.77;;;;;;;21.82;54.15;100842.38;5012149;28;20044;-73
2021/09/28 04:51:10;;;;;;;4.13;1.70;;;;;;;21.82;54.50;100845.06;5030516;28;20064;-74
2021/09/28 04:53:35;;;;;;;5.22;2.05;;;;;;;21.82;54.05;100843.19;5029905;28;20080;-75
2021/09/28 04:56:01;;;;;;;3.72;1.42;;;;;;;21.82;54.36;100842.38;5012707;28;20288;-72
2021/09/28 04:58:26;;;;;;;4.70;1.60;;;;;;;21.82;54.42;100845.06;5030124;28;20026;-75
2021/09/28 05:00:52;;;;;;;3.90;1.38;;;;;;;21.82;54.18;100851.22;5022730;28;20034;-76
2021/09/28 05:03:18;;;;;;;5.22;1.70;;;;;;;21.81;54.51;100838.06;5022550;28;20120;-75
2021/09/28 05:05:45;;;;;;;2.60;1.30;;;;;;;21.81;54.20;100843.41;5011661;28;20124;-73
2021/09/28 05:08:10;;;;;;;3.20;1.40;;;;;;;21.82;54.26;100839.72;5030091;28;20049;-76
2021/09/28 05:10:36;;;;;;;3.47;1.50;;;;;;;21.81;54.37;100843.41;5031171;28;20038;-77
2021/09/28 05:13:03;;;;;;;4.93;1.58;;;;;;;21.81;54.38;100838.91;5012765;28;20045;-76
2021/09/28 05:15:28;;;;;;;4.05;1.50;;;;;;;21.80;54.24;100845.28;5029544;28;20068;-74
2021/09/28 05:17:54;;;;;;;4.50;1.65;;;;;;;21.80;54.20;100847.13;5012376;28;20152;-74
2021/09/28 05:20:19;;;;;;;3.97;1.77;;;;;;;21.80;54.56;100844.44;4996432;28;20753;-77
2021/09/28 05:22:45;;;;;;;3.65;1.45;;;;;;;21.79;54.18;100837.47;5031700;28;20053;-76
2021/09/28 05:25:11;;;;;;;4.22;1.52;;;;;;;21.80;54.40;100836.44;5032003;28;20068;-74
2021/09/28 05:27:36;;;;;;;4.45;1.60;;;;;;;21.79;54.54;100830.28;5031334;28;20037;-73
2021/09/28 05:30:03;;;;;;;3.38;1.40;;;;;;;21.78;54.26;100823.31;5029950;28;20041;-76
2021/09/28 05:32:28;;;;;;;4.28;1.85;;;;;;;21.79;54.47;100826.78;5029001;28;20267;-75
2021/09/28 05:34:54;;;;;;;3.72;1.48;;;;;;;21.78;54.55;100819.81;4994750;28;20476;-76
2021/09/28 05:37:19;;;;;;;4.40;1.67;;;;;;;21.78;54.47;100820.63;5028754;28;20091;-77
2021/09/28 05:39:45;;;;;;;3.38;1.85;;;;;;;21.77;54.64;100818.16;5028869;28;20040;-66
2021/09/28 05:42:11;;;;;;;2.95;1.33;;;;;;;21.77;54.54;100818.97;5029621;28;20449;-75
2021/09/28 05:44:37;;;;;;;3.15;1.40;;;;;;;21.76;54.44;100811.16;5029577;28;20045;-74
2021/09/28 05:47:03;;;;;;;4.85;1.55;;;;;;;21.76;54.55;100806.66;5010356;28;20413;-68
2021/09/28 05:49:28;;;;;;;4.15;1.75;;;;;;;21.75;55.01;100815.69;5028704;28;20072;-72
2021/09/28 05:51:56;;;;;;;5.65;1.52;;;;;;;21.74;55.09;100813.22;5028637;28;20485;-74
2021/09/28 05:54:23;;;;;;;3.30;1.30;;;;;;;21.74;54.88;100810.56;5026354;28;20048;-70
2021/09/28 05:56:50;;;;;;;3.05;1.25;;;;;;;21.74;55.13;100807.88;5008701;28;20030;-72
2021/09/28 05:59:16;;;;;;;20.48;2.03;;;;;;;21.73;54.93;100804.41;5010328;28;20034;-71
2021/09/28 06:01:42;;;;;;;3.20;1.27;;;;;;;21.74;54.79;100803.38;5019903;28;20042;-73
2021/09/28 06:04:08;;;;;;;3.75;1.48;;;;;;;21.75;54.70;100790.84;5027764;28;20087;-71
2021/09/28 06:06:34;;;;;;;4.35;1.40;;;;;;;21.74;54.67;100792.69;5028460;28;20037;-73
2021/09/28 06:08:59;;;;;;;3.95;1.63;;;;;;;21.75;54.81;100789.00;5028509;28;20037;-74
2021/09/28 06:11:25;;;;;;;3.85;1.20;;;;;;;21.76;54.49;100784.47;5014496;28;20041;-72
2021/09/28 06:13:51;;;;;;;4.03;1.30;;;;;;;21.76;54.95;100787.13;5032639;28;20396;-73
2021/09/28 06:16:17;;;;;;;2.65;1.15;;;;;;;21.75;54.90;100775.63;5032513;28;20041;-72
2021/09/28 06:18:43;;;;;;;3.55;1.60;;;;;;;21.75;54.41;100785.50;5032503;28;20056;-71
2021/09/28 06:21:08;;;;;;;3.30;1.55;;;;;;;21.75;54.67;100788.16;5032632;28;20040;-73
2021/09/28 06:23:34;;;;;;;4.38;1.70;;;;;;;21.74;54.74;100786.53;5013763;28;20054;-69
2021/09/28 06:25:59;;;;;;;3.53;1.45;;;;;;;21.74;54.46;100782.00;5049438;28;20037;-74
2021/09/28 06:28:25;;;;;;;3.35;1.25;;;;;;;21.74;54.65;100786.53;5051565;28;20033;-72
2021/09/28 06:30:50;;;;;;;4.25;1.48;;;;;;;21.74;54.56;100782.00;5050599;28;20041;-69
2021/09/28 06:33:15;;;;;;;3.58;1.20;;;;;;;21.73;54.72;100780.38;5033167;28;20040;-72
2021/09/28 06:35:41;;;;;;;3.13;1.13;;;;;;;21.73;54.51;100774.22;5042570;28;20045;-72
2021/09/28 06:38:07;;;;;;;3.55;1.20;;;;;;;21.73;54.57;100783.03;5030947;28;20029;-73
2021/09/28 06:40:34;;;;;;;3.13;0.80;;;;;;;21.73;54.34;100783.03;5013478;28;20048;-71
2021/09/28 06:42:59;;;;;;;3.38;1.17;;;;;;;21.72;54.49;100784.06;5030963;28;20033;-73
2021/09/28 06:45:25;;;;;;;3.13;1.10;;;;;;;21.73;54.26;100780.38;5031023;28;20067;-72
2021/09/28 06:47:51;;;;;;;3.70;1.35;;;;;;;21.73;54.59;100776.88;5031155;28;20048;-67
2021/09/28 06:50:16;;;;;;;4.30;1.55;;;;;;;21.73;54.27;100766.22;5030593;28;20187;-74
2021/09/28 06:52:45;;;;;;;3.38;1.40;;;;;;;21.73;54.44;100774.22;5013394;28;20038;-74
2021/09/28 06:55:11;;;;;;;5.35;1.52;;;;;;;21.71;54.50;100777.09;5013624;28;20052;-74
2021/09/28 06:57:37;;;;;;;3.10;1.15;;;;;;;21.71;54.08;100776.28;5046429;28;20033;-73
2021/09/28 07:00:04;;;;;;;3.95;1.30;;;;;;;21.70;54.46;100775.47;5050231;28;20186;-70
2021/09/28 07:02:30;;;;;;;3.17;1.20;;;;;;;21.70;54.59;100771.97;5026505;28;20053;-74
2021/09/28 07:04:55;;;;;;;7.63;1.73;;;;;;;21.69;54.53;100779.16;5030420;28;20505;-73
2021/09/28 07:07:23;;;;;;;4.32;1.40;;;;;;;21.70;54.21;100783.47;5013064;28;20497;-74
2021/09/28 07:09:49;;;;;;;4.15;1.55;;;;;;;21.70;54.46;100783.47;5030980;28;20049;-74
2021/09/28 07:12:14;;;;;;;5.28;1.40;;;;;;;21.70;54.08;100780.81;5030775;28;20037;-72
2021/09/28 07:14:40;;;;;;;4.32;1.30;;;;;;;21.69;54.49;100786.34;5000737;28;20127;-72
2021/09/28 07:17:05;;;;;;;4.07;1.23;;;;;;;21.69;54.50;100783.69;4995222;28;20042;-73
2021/09/28 07:19:31;;;;;;;2.80;1.20;;;;;;;21.68;54.51;100784.72;5031236;28;20348;-73
2021/09/28 07:21:56;;;;;;;5.72;1.30;;;;;;;21.68;54.76;100777.53;5012978;28;20040;-72
2021/09/28 07:24:22;;;;;;;4.05;1.20;;;;;;;21.68;54.67;100782.88;4991374;28;1149126;-71
2021/09/28 07:26:47;;;;;;;6.85;1.30;;;;;;;21.68;55.18;100782.06;5031766;28;20046;-72
2021/09/28 07:29:12;;;;;;;7.25;1.17;;;;;;;21.66;54.88;100779.59;5009323;28;20153;-68
2021/09/28 07:31:38;;;;;;;4.78;1.50;;;;;;;21.65;54.68;100782.47;5006072;28;20045;-68
2021/09/28 07:34:04;;;;;;;3.58;1.08;;;;;;;21.59;53.80;100778.78;5049992;28;20043;-69
2021/09/28 07:36:29;;;;;;;4.95;0.90;;;;;;;21.51;52.85;100781.69;5015878;28;20030;-68
2021/09/28 07:38:54;;;;;;;6.50;1.30;;;;;;;21.42;52.47;100773.09;5011556;28;20389;-65
2021/09/28 07:41:20;;;;;;;3.25;1.02;;;;;;;21.35;51.61;100780.31;4994415;28;20046;-73
2021/09/28 07:43:45;;;;;;;4.22;1.08;;;;;;;21.33;51.44;100777.03;5026867;28;20112;-72
2021/09/28 07:46:11;;;;;;;5.05;1.15;;;;;;;21.28;50.72;100771.47;5013101;28;20041;-72
2021/09/28 07:48:37;;;;;;;4.32;0.95;;;;;;;21.25;50.70;100766.56;5038277;28;20052;-71
2021/09/28 07:51:02;;;;;;;6.40;1.23;;;;;;;21.21;50.06;100768.81;5033140;28;20060;-73
2021/09/28 07:53:28;;;;;;;6.95;1.20;;;;;;;21.20;49.77;100771.69;5017028;28;20099;-72
2021/09/28 07:55:55;;;;;;;5.35;1.13;;;;;;;21.18;49.74;100769.22;5050774;28;20033;-73
2021/09/28 07:58:20;;;;;;;5.13;1.20;;;;;;;21.16;49.46;100767.78;5033666;28;20038;-71
2021/09/28 08:00:46;;;;;;;7.50;1.10;;;;;;;21.13;49.32;100774.34;5009041;28;20036;-70
2021/09/28 08:03:12;;;;;;;5.90;1.00;;;;;;;21.08;48.59;100784.81;5007721;28;20092;-74
2021/09/28 08:05:37;;;;;;;8.18;1.00;;;;;;;21.03;48.54;100778.47;4991692;28;20425;-68
2021/09/28 08:08:03;;;;;;;3.28;0.98;;;;;;;21.00;48.11;100771.72;5007405;28;20042;-67
2021/09/28 08:10:29;;;;;;;6.18;1.00;;;;;;;20.97;47.97;100776.63;5002262;28;20503;-69
2021/09/28 08:12:56;;;;;;;5.03;0.85;;;;;;;20.93;47.50;100773.56;5025525;28;20030;-68
2021/09/28 08:15:21;;;;;;;5.43;1.10;;;;;;;20.91;47.49;100780.94;5025002;28;20033;-67
2021/09/28 08:17:47;;;;;;;3.80;0.80;;;;;;;20.89;47.70;100788.34;5026471;28;20036;-65
2021/09/28 08:20:16;;;;;;;5.32;0.63;;;;;;;20.89;47.23;100786.50;5014122;28;20083;-69
2021/09/28 08:22:42;;;;;;;2.40;0.90;;;;;;;20.90;47.18;100768.63;5008744;28;20104;-69
2021/09/28 08:25:10;;;;;;;2.72;0.85;;;;;;;20.90;46.92;100764.13;5014662;28;20042;-69
2021/09/28 08:30:21;;;;;;;5.05;1.02;;;;;;;20.91;46.92;100781.75;5029641;28;20583;-69
2021/09/28 08:32:47;;;;;;;6.15;1.17;;;;;;;20.91;46.40;100781.75;5011473;28;20128;-69
2021/09/28 08:35:12;;;;;;;4.13;0.85;;;;;;;20.92;46.44;100783.41;5011212;28;20128;-70
2021/09/28 08:37:38;;;;;;;2.63;0.90;;;;;;;20.90;46.22;100782.78;5029492;28;20042;-69
2021/09/28 08:40:04;;;;;;;3.78;0.77;;;;;;;20.91;46.28;100783.59;4995917;28;20504;-70
2021/09/28 08:42:29;;;;;;;3.60;0.90;;;;;;;20.91;46.46;100775.63;5028534;28;20060;-69
2021/09/28 08:44:55;;;;;;;7.65;1.20;;;;;;;20.89;46.39;100775.81;5028366;28;20480;-70
2021/09/28 08:47:44;;;;;;;2.45;0.73;;;;;;;20.83;45.83;100771.31;5009967;28;20470;-70
2021/09/28 08:50:21;;;;;;;3.13;0.77;;;;;;;20.86;46.14;100765.56;5017108;28;20115;-73
2021/09/28 08:52:49;;;;;;;4.30;0.82;;;;;;;20.91;45.97;100760.44;5030514;28;20120;-70
2021/09/28 08:55:14;;;;;;;3.88;0.98;;;;;;;20.92;46.01;100759.41;5011817;28;20033;-70
2021/09/28 08:57:41;;;;;;;3.53;1.15;;;;;;;20.91;45.93;100768.44;5029972;28;20037;-70
2021/09/28 09:00:25;;;;;;;3.45;0.80;;;;;;;20.87;45.68;100774.38;5010356;28;20033;-70
2021/09/28 09:02:51;;;;;;;5.13;1.00;;;;;;;20.91;45.61;100789.75;5028548;28;20037;-69
2021/09/28 09:05:17;;;;;;;5.45;1.02;;;;;;;20.91;45.96;100781.75;5027296;28;20057;-70
2021/09/28 09:07:55;;;;;;;7.75;1.40;;;;;;;20.89;45.94;100777.66;5030039;28;20540;-69
2021/09/28 09:10:27;;;;;;;4.80;1.00;;;;;;;20.87;45.77;100777.06;5011656;28;20046;-71
2021/09/28 09:12:53;;;;;;;4.53;0.90;;;;;;;20.86;45.72;100773.56;5030118;28;20030;-69
2021/09/28 09:15:25;;;;;;;2.95;0.80;;;;;;;20.84;45.25;100775.63;5028887;28;20041;-69
2021/09/28 09:17:53;;;;;;;3.72;0.90;;;;;;;20.84;45.21;100786.28;5029743;28;20472;-70
2021/09/28 09:20:33;;;;;;;3.15;0.80;;;;;;;20.82;45.30;100787.50;5029113;28;20038;-70
2021/09/28 09:23:26;;;;;;;4.65;0.73;;;;;;;20.77;45.42;100781.97;5029534;28;20060;-69
2021/09/28 09:26:09;;;;;;;3.40;1.05;;;;;;;20.78;45.16;100794.28;5029524;28;20048;-69
2021/09/28 09:28:37;;;;;;;2.95;0.82;;;;;;;20.81;45.42;100785.84;5011694;28;20497;-69
2021/09/28 09:31:07;;;;;;;3.28;0.70;;;;;;;20.75;44.81;100779.50;5029646;28;20092;-69
2021/09/28 09:33:33;;;;;;;3.15;0.80;;;;;;;20.75;44.75;100779.50;5029866;28;20029;-70
2021/09/28 09:35:59;;;;;;;1.80;0.68;;;;;;;20.75;44.87;100779.50;5028972;28;20036;-70
2021/09/28 09:38:26;;;;;;;2.00;0.70;;;;;;;20.74;44.81;100779.72;5029264;28;20037;-69
2021/09/28 09:40:52;;;;;;;1.98;0.73;;;;;;;20.71;44.81;100772.13;5029472;28;20033;-69
2021/09/28 09:43:29;;;;;;;2.65;0.65;;;;;;;20.70;44.69;100779.31;5011354;28;20034;-70
2021/09/28 09:46:18;;;;;;;1.77;0.60;;;;;;;20.63;44.33;100773.16;5029134;28;20033;-69
2021/09/28 09:48:45;;;;;;;1.85;0.57;;;;;;;20.64;44.46;100766.78;4996002;28;20489;-70
2021/09/28 09:51:20;;;;;;;1.90;0.60;;;;;;;20.59;44.38;100788.72;5029433;28;20043;-70
2021/09/28 09:53:59;;;;;;;2.53;0.80;;;;;;;20.60;44.38;100778.88;5029525;28;20030;-71
2021/09/28 09:56:51;;;;;;;3.33;0.80;;;;;;;20.54;44.29;100763.72;5029544;28;20136;-71
2021/09/28 09:59:19;;;;;;;1.85;0.70;;;;;;;20.58;44.05;100754.28;5029319;28;20045;-71
2021/09/28 10:01:46;;;;;;;2.95;0.88;;;;;;;20.56;43.89;100746.50;5028945;28;20052;-70
2021/09/28 10:04:14;;;;;;;1.48;0.60;;;;;;;20.57;43.93;100740.16;5011358;28;20121;-70
2021/09/28 10:06:40;;;;;;;3.13;0.52;;;;;;;20.57;43.64;100744.66;5029104;28;20405;-71
2021/09/28 10:09:10;;;;;;;1.73;0.55;;;;;;;20.58;43.80;100744.44;5029114;28;20038;-71
2021/09/28 10:11:36;;;;;;;1.05;0.50;;;;;;;20.61;43.41;100736.03;5029037;28;20115;-70
2021/09/28 10:14:03;;;;;;;1.38;0.65;;;;;;;20.62;43.59;100735.00;5029324;28;20041;-70
2021/09/28 10:16:32;;;;;;;3.08;0.70;;;;;;;20.62;43.53;100729.69;5028710;28;20084;-70
2021/09/28 10:18:58;;;;;;;1.63;0.60;;;;;;;20.63;43.54;100720.66;5028565;28;20034;-71
2021/09/28 10:21:38;;;;;;;1.35;0.55;;;;;;;20.55;42.89;100712.06;5028953;28;20114;-71
2021/09/28 10:24:22;;;;;;;2.15;0.50;;;;;;;20.53;43.29;100714.94;5028911;28;20053;-69
2021/09/28 10:26:59;;;;;;;3.08;0.60;;;;;;;20.53;43.03;100725.59;5029136;28;20099;-69
2021/09/28 10:29:37;;;;;;;2.28;0.70;;;;;;;20.54;43.24;100737.06;5028667;28;20113;-69
2021/09/28 10:32:25;;;;;;;1.52;0.60;;;;;;;20.53;42.77;100735.44;5028704;28;20021;-69
2021/09/28 10:35:06;;;;;;;0.60;0.40;;;;;;;20.53;42.69;100735.44;5028762;28;20076;-69
2021/09/28 10:37:48;;;;;;;1.58;0.50;;;;;;;20.50;42.77;100731.31;5028754;28;20038;-69
2021/09/28 10:40:13;;;;;;;2.78;0.60;;;;;;;20.54;42.68;100721.91;5028707;28;20517;-70
2021/09/28 10:43:18;;;;;;;1.35;0.40;;;;;;;20.50;42.44;100714.50;5011136;28;20050;-70
2021/09/28 10:45:44;;;;;;;1.73;0.60;;;;;;;20.50;42.46;100710.00;5011124;28;20196;-70
2021/09/28 10:48:29;;;;;;;1.80;0.80;;;;;;;20.44;42.76;100712.66;5010659;28;20042;-70
2021/09/28 10:51:20;;;;;;;2.17;0.70;;;;;;;20.44;42.60;100713.50;5028560;28;20030;-71
2021/09/28 10:53:50;;;;;;;1.80;0.80;;;;;;;20.47;42.57;100720.25;5028668;28;20096;-70
2021/09/28 10:56:17;;;;;;;1.48;0.40;;;;;;;20.48;42.87;100716.56;5011503;28;20045;-70
2021/09/28 10:58:52;;;;;;;2.10;0.80;;;;;;;20.47;42.74;100722.91;5032528;28;20037;-70
2021/09/28 11:01:18;;;;;;;;;;;;;;;20.37;42.95;100717.16;5031799;28;20043;-70
2021/09/28 11:03:55;;;;;;;1.30;0.60;;;;;;;20.45;43.01;100731.13;5014402;28;19975;-70
2021/09/28 11:06:45;;;;;;;2.83;0.57;;;;;;;20.43;42.79;100729.69;5032274;28;20045;-70
2021/09/28 11:09:11;;;;;;;2.85;0.60;;;;;;;20.48;43.22;100722.72;5031847;28;20388;-70
2021/09/28 11:11:37;;;;;;;1.38;0.57;;;;;;;20.46;42.85;100727.44;5014355;28;20516;-70
2021/09/28 11:14:05;;;;;;;1.63;0.60;;;;;;;20.46;42.98;100724.75;5014379;28;20029;-70
2021/09/28 11:16:53;;;;;;;2.97;0.68;;;;;;;20.43;42.87;100727.03;5031574;28;20108;-70
2021/09/28 11:19:19;;;;;;;3.47;0.98;;;;;;;20.49;43.02;100720.88;5013750;28;20053;-70
2021/09/28 11:21:46;;;;;;;2.58;0.88;;;;;;;20.51;43.01;100713.47;5014289;28;20049;-70
2021/09/28 11:24:13;;;;;;;2.80;0.70;;;;;;;20.50;42.93;100714.50;5031330;28;20843;-70
2021/09/28 11:26:42;;;;;;;1.80;0.60;;;;;;;20.50;42.95;100717.16;5014224;28;20477;-70
2021/09/28 11:29:11;;;;;;;3.17;0.60;;;;;;;20.48;43.00;100703.25;5031633;28;20064;-70